sensor_id;sensor_type;location;lat;lon;timestamp;temperature;humidity
38237;DHT22;50101;49.438;11.098;2023-05-07T00:00:20;20.30;58.80
38237;DHT22;50101;49.438;11.098;2023-05-07T00:02:47;20.30;58.80
38237;DHT22;50101;49.438;11.098;2023-05-07T00:05:14;20.30;58.80
38237;DHT22;50101;49.438;11.098;2023-05-07T00:07:41;20.30;58.80
38237;DHT22;50101;49.438;11.098;2023-05-07T00:10:09;20.30;58.80
38237;DHT22;50101;49.438;11.098;2023-05-07T00:12:37;20.30;58.80
38237;DHT22;50101;49.438;11.098;2023-05-07T00:15:04;20.30;58.80
38237;DHT22;50101;49.438;11.098;2023-05-07T00:17:33;20.30;58.80
38237;DHT22;50101;49.438;11.098;2023-05-07T00:19:59;20.30;58.80
38237;DHT22;50101;49.438;11.098;2023-05-07T00:22:26;20.30;58.80
38237;DHT22;50101;49.438;11.098;2023-05-07T00:24:53;20.30;58.80
38237;DHT22;50101;49.438;11.098;2023-05-07T00:27:20;20.30;58.80
38237;DHT22;50101;49.438;11.098;2023-05-07T00:29:46;20.30;58.80
38237;DHT22;50101;49.438;11.098;2023-05-07T00:32:13;20.30;58.80
38237;DHT22;50101;49.438;11.098;2023-05-07T00:34:40;20.30;58.70
38237;DHT22;50101;49.438;11.098;2023-05-07T00:37:06;20.30;58.70
38237;DHT22;50101;49.438;11.098;2023-05-07T00:39:36;20.30;58.80
38237;DHT22;50101;49.438;11.098;2023-05-07T00:42:03;20.30;58.60
38237;DHT22;50101;49.438;11.098;2023-05-07T00:44:29;20.30;58.60
38237;DHT22;50101;49.438;11.098;2023-05-07T00:46:57;20.30;58.70
38237;DHT22;50101;49.438;11.098;2023-05-07T00:49:38;20.30;58.60
38237;DHT22;50101;49.438;11.098;2023-05-07T00:52:07;20.30;58.60
38237;DHT22;50101;49.438;11.098;2023-05-07T00:54:34;20.30;58.70
38237;DHT22;50101;49.438;11.098;2023-05-07T00:57:02;20.30;58.70
38237;DHT22;50101;49.438;11.098;2023-05-07T00:59:31;20.30;58.70
38237;DHT22;50101;49.438;11.098;2023-05-07T01:01:59;20.30;58.60
38237;DHT22;50101;49.438;11.098;2023-05-07T01:04:26;20.30;58.60
38237;DHT22;50101;49.438;11.098;2023-05-07T01:06:55;20.30;58.60
38237;DHT22;50101;49.438;11.098;2023-05-07T01:09:24;20.30;58.60
38237;DHT22;50101;49.438;11.098;2023-05-07T01:11:52;20.30;58.60
38237;DHT22;50101;49.438;11.098;2023-05-07T01:14:20;20.30;58.60
38237;DHT22;50101;49.438;11.098;2023-05-07T01:16:47;20.20;58.40
38237;DHT22;50101;49.438;11.098;2023-05-07T01:19:17;20.30;58.60
38237;DHT22;50101;49.438;11.098;2023-05-07T01:21:48;20.30;58.60
38237;DHT22;50101;49.438;11.098;2023-05-07T01:24:15;20.30;58.50
38237;DHT22;50101;49.438;11.098;2023-05-07T01:26:43;20.30;58.60
38237;DHT22;50101;49.438;11.098;2023-05-07T01:29:11;20.30;58.50
38237;DHT22;50101;49.438;11.098;2023-05-07T01:31:38;20.30;58.50
38237;DHT22;50101;49.438;11.098;2023-05-07T01:34:07;20.30;58.50
38237;DHT22;50101;49.438;11.098;2023-05-07T01:36:37;20.30;58.50
38237;DHT22;50101;49.438;11.098;2023-05-07T01:39:05;20.30;58.40
38237;DHT22;50101;49.438;11.098;2023-05-07T01:41:32;20.30;57.90
38237;DHT22;50101;49.438;11.098;2023-05-07T01:43:59;20.20;58.40
38237;DHT22;50101;49.438;11.098;2023-05-07T01:46:26;20.30;58.50
38237;DHT22;50101;49.438;11.098;2023-05-07T01:48:54;20.20;58.40
38237;DHT22;50101;49.438;11.098;2023-05-07T01:51:21;20.20;58.40
38237;DHT22;50101;49.438;11.098;2023-05-07T01:53:48;20.20;58.40
38237;DHT22;50101;49.438;11.098;2023-05-07T01:56:18;20.20;58.30
38237;DHT22;50101;49.438;11.098;2023-05-07T01:58:45;20.20;58.40
38237;DHT22;50101;49.438;11.098;2023-05-07T02:01:13;20.30;58.50
38237;DHT22;50101;49.438;11.098;2023-05-07T02:03:41;20.20;58.30
38237;DHT22;50101;49.438;11.098;2023-05-07T02:06:08;20.20;58.40
38237;DHT22;50101;49.438;11.098;2023-05-07T02:08:35;20.20;58.40
38237;DHT22;50101;49.438;11.098;2023-05-07T02:11:02;20.20;58.40
38237;DHT22;50101;49.438;11.098;2023-05-07T02:13:31;20.20;58.40
38237;DHT22;50101;49.438;11.098;2023-05-07T02:15:58;20.20;58.40
38237;DHT22;50101;49.438;11.098;2023-05-07T02:18:25;20.20;58.30
38237;DHT22;50101;49.438;11.098;2023-05-07T02:20:51;20.20;57.80
38237;DHT22;50101;49.438;11.098;2023-05-07T02:23:18;20.20;58.30
38237;DHT22;50101;49.438;11.098;2023-05-07T02:25:45;20.20;58.40
38237;DHT22;50101;49.438;11.098;2023-05-07T02:28:12;20.20;58.30
38237;DHT22;50101;49.438;11.098;2023-05-07T02:30:39;20.20;58.30
38237;DHT22;50101;49.438;11.098;2023-05-07T02:33:06;20.20;58.30
38237;DHT22;50101;49.438;11.098;2023-05-07T02:35:34;20.20;58.30
38237;DHT22;50101;49.438;11.098;2023-05-07T02:38:01;20.20;58.30
38237;DHT22;50101;49.438;11.098;2023-05-07T02:40:28;20.20;58.20
38237;DHT22;50101;49.438;11.098;2023-05-07T02:42:55;20.20;58.30
38237;DHT22;50101;49.438;11.098;2023-05-07T02:45:22;20.20;58.30
38237;DHT22;50101;49.438;11.098;2023-05-07T02:47:48;20.20;58.20
38237;DHT22;50101;49.438;11.098;2023-05-07T02:50:15;20.20;58.30
38237;DHT22;50101;49.438;11.098;2023-05-07T02:52:42;20.20;58.30
38237;DHT22;50101;49.438;11.098;2023-05-07T02:55:08;20.20;58.30
38237;DHT22;50101;49.438;11.098;2023-05-07T02:57:35;20.20;58.20
38237;DHT22;50101;49.438;11.098;2023-05-07T03:00:14;20.20;58.30
38237;DHT22;50101;49.438;11.098;2023-05-07T03:02:41;20.20;58.30
38237;DHT22;50101;49.438;11.098;2023-05-07T03:05:07;20.20;58.30
38237;DHT22;50101;49.438;11.098;2023-05-07T03:07:35;20.20;58.20
38237;DHT22;50101;49.438;11.098;2023-05-07T03:10:03;20.20;58.30
38237;DHT22;50101;49.438;11.098;2023-05-07T03:12:30;20.20;58.20
38237;DHT22;50101;49.438;11.098;2023-05-07T03:14:57;20.20;58.20
38237;DHT22;50101;49.438;11.098;2023-05-07T03:17:24;20.20;58.30
38237;DHT22;50101;49.438;11.098;2023-05-07T03:19:51;20.20;58.30
38237;DHT22;50101;49.438;11.098;2023-05-07T03:22:17;20.20;58.20
38237;DHT22;50101;49.438;11.098;2023-05-07T03:24:44;20.20;58.10
38237;DHT22;50101;49.438;11.098;2023-05-07T03:27:11;20.20;58.20
38237;DHT22;50101;49.438;11.098;2023-05-07T03:29:37;20.20;58.20
38237;DHT22;50101;49.438;11.098;2023-05-07T03:32:04;20.20;58.20
38237;DHT22;50101;49.438;11.098;2023-05-07T03:34:32;20.20;58.10
38237;DHT22;50101;49.438;11.098;2023-05-07T03:36:59;20.20;58.70
38237;DHT22;50101;49.438;11.098;2023-05-07T03:39:25;20.20;58.10
38237;DHT22;50101;49.438;11.098;2023-05-07T03:41:52;20.20;58.10
38237;DHT22;50101;49.438;11.098;2023-05-07T03:44:19;20.20;58.20
38237;DHT22;50101;49.438;11.098;2023-05-07T03:46:46;20.10;58.00
38237;DHT22;50101;49.438;11.098;2023-05-07T03:49:13;20.20;58.10
38237;DHT22;50101;49.438;11.098;2023-05-07T03:51:39;20.20;58.10
38237;DHT22;50101;49.438;11.098;2023-05-07T03:54:07;20.20;58.10
38237;DHT22;50101;49.438;11.098;2023-05-07T03:56:34;20.20;58.10
38237;DHT22;50101;49.438;11.098;2023-05-07T03:59:01;20.10;58.00
38237;DHT22;50101;49.438;11.098;2023-05-07T04:01:28;20.10;58.00
38237;DHT22;50101;49.438;11.098;2023-05-07T04:03:55;20.20;58.10
38237;DHT22;50101;49.438;11.098;2023-05-07T04:06:22;20.10;58.00
38237;DHT22;50101;49.438;11.098;2023-05-07T04:08:49;20.20;58.10
38237;DHT22;50101;49.438;11.098;2023-05-07T04:11:15;20.10;58.00
38237;DHT22;50101;49.438;11.098;2023-05-07T04:13:42;20.20;58.10
38237;DHT22;50101;49.438;11.098;2023-05-07T04:16:08;20.20;58.00
38237;DHT22;50101;49.438;11.098;2023-05-07T04:18:35;20.10;57.90
38237;DHT22;50101;49.438;11.098;2023-05-07T04:21:02;20.20;58.00
38237;DHT22;50101;49.438;11.098;2023-05-07T04:23:28;20.10;57.90
38237;DHT22;50101;49.438;11.098;2023-05-07T04:25:55;20.20;58.10
38237;DHT22;50101;49.438;11.098;2023-05-07T04:28:22;20.10;57.90
38237;DHT22;50101;49.438;11.098;2023-05-07T04:30:49;20.10;57.90
38237;DHT22;50101;49.438;11.098;2023-05-07T04:33:16;20.10;57.90
38237;DHT22;50101;49.438;11.098;2023-05-07T04:35:43;20.10;57.90
38237;DHT22;50101;49.438;11.098;2023-05-07T04:38:10;20.10;57.90
38237;DHT22;50101;49.438;11.098;2023-05-07T04:40:37;20.10;57.90
38237;DHT22;50101;49.438;11.098;2023-05-07T04:43:05;20.10;57.90
38237;DHT22;50101;49.438;11.098;2023-05-07T04:45:32;20.20;58.00
38237;DHT22;50101;49.438;11.098;2023-05-07T04:47:58;20.10;57.90
38237;DHT22;50101;49.438;11.098;2023-05-07T04:50:25;20.10;57.90
38237;DHT22;50101;49.438;11.098;2023-05-07T04:52:52;20.20;58.00
38237;DHT22;50101;49.438;11.098;2023-05-07T04:55:19;20.10;57.80
38237;DHT22;50101;49.438;11.098;2023-05-07T04:57:45;20.10;57.80
38237;DHT22;50101;49.438;11.098;2023-05-07T05:00:12;20.10;57.90
38237;DHT22;50101;49.438;11.098;2023-05-07T05:02:42;20.20;58.00
38237;DHT22;50101;49.438;11.098;2023-05-07T05:05:09;20.20;57.90
38237;DHT22;50101;49.438;11.098;2023-05-07T05:07:36;20.10;57.80
38237;DHT22;50101;49.438;11.098;2023-05-07T05:10:05;20.10;57.80
38237;DHT22;50101;49.438;11.098;2023-05-07T05:12:32;20.20;57.90
38237;DHT22;50101;49.438;11.098;2023-05-07T05:14:58;20.10;57.80
38237;DHT22;50101;49.438;11.098;2023-05-07T05:17:25;20.20;57.90
38237;DHT22;50101;49.438;11.098;2023-05-07T05:19:52;20.10;57.80
38237;DHT22;50101;49.438;11.098;2023-05-07T05:22:18;20.20;58.00
38237;DHT22;50101;49.438;11.098;2023-05-07T05:24:45;20.20;58.00
38237;DHT22;50101;49.438;11.098;2023-05-07T05:27:11;20.10;57.80
38237;DHT22;50101;49.438;11.098;2023-05-07T05:29:38;20.10;57.80
38237;DHT22;50101;49.438;11.098;2023-05-07T05:32:05;20.10;57.90
38237;DHT22;50101;49.438;11.098;2023-05-07T05:34:31;20.20;58.00
38237;DHT22;50101;49.438;11.098;2023-05-07T05:36:59;20.10;57.90
38237;DHT22;50101;49.438;11.098;2023-05-07T05:39:26;20.10;57.90
38237;DHT22;50101;49.438;11.098;2023-05-07T05:41:53;20.20;58.00
38237;DHT22;50101;49.438;11.098;2023-05-07T05:44:19;20.20;57.90
38237;DHT22;50101;49.438;11.098;2023-05-07T05:46:46;20.20;57.90
38237;DHT22;50101;49.438;11.098;2023-05-07T05:49:13;20.20;58.00
38237;DHT22;50101;49.438;11.098;2023-05-07T05:51:39;20.20;57.90
38237;DHT22;50101;49.438;11.098;2023-05-07T05:54:06;20.20;58.00
38237;DHT22;50101;49.438;11.098;2023-05-07T05:56:33;20.20;57.90
38237;DHT22;50101;49.438;11.098;2023-05-07T05:59:00;20.20;57.90
38237;DHT22;50101;49.438;11.098;2023-05-07T06:01:26;20.20;58.00
38237;DHT22;50101;49.438;11.098;2023-05-07T06:03:53;20.20;57.90
38237;DHT22;50101;49.438;11.098;2023-05-07T06:06:20;20.20;57.90
38237;DHT22;50101;49.438;11.098;2023-05-07T06:08:46;20.20;58.00
38237;DHT22;50101;49.438;11.098;2023-05-07T06:11:13;20.20;57.90
38237;DHT22;50101;49.438;11.098;2023-05-07T06:13:40;20.20;57.90
38237;DHT22;50101;49.438;11.098;2023-05-07T06:16:07;20.20;57.90
38237;DHT22;50101;49.438;11.098;2023-05-07T06:18:33;20.20;57.90
38237;DHT22;50101;49.438;11.098;2023-05-07T06:21:02;20.20;57.90
38237;DHT22;50101;49.438;11.098;2023-05-07T06:23:29;20.20;57.90
38237;DHT22;50101;49.438;11.098;2023-05-07T06:25:55;20.20;57.90
38237;DHT22;50101;49.438;11.098;2023-05-07T06:28:22;20.30;58.10
38237;DHT22;50101;49.438;11.098;2023-05-07T06:30:49;20.20;58.00
38237;DHT22;50101;49.438;11.098;2023-05-07T06:33:16;20.20;57.90
38237;DHT22;50101;49.438;11.098;2023-05-07T06:35:43;20.30;58.00
38237;DHT22;50101;49.438;11.098;2023-05-07T06:38:09;20.20;57.90
38237;DHT22;50101;49.438;11.098;2023-05-07T06:40:37;20.20;57.90
38237;DHT22;50101;49.438;11.098;2023-05-07T06:43:03;20.20;58.00
38237;DHT22;50101;49.438;11.098;2023-05-07T06:45:30;20.20;57.90
38237;DHT22;50101;49.438;11.098;2023-05-07T06:47:56;20.20;58.00
38237;DHT22;50101;49.438;11.098;2023-05-07T06:50:23;20.20;58.00
38237;DHT22;50101;49.438;11.098;2023-05-07T06:52:50;20.20;58.00
38237;DHT22;50101;49.438;11.098;2023-05-07T06:55:17;20.20;58.10
38237;DHT22;50101;49.438;11.098;2023-05-07T06:57:43;20.20;58.00
38237;DHT22;50101;49.438;11.098;2023-05-07T07:00:10;20.20;58.10
38237;DHT22;50101;49.438;11.098;2023-05-07T07:02:37;20.30;58.10
38237;DHT22;50101;49.438;11.098;2023-05-07T07:05:05;20.20;58.10
38237;DHT22;50101;49.438;11.098;2023-05-07T07:07:32;20.20;58.10
38237;DHT22;50101;49.438;11.098;2023-05-07T07:09:58;20.30;58.10
38237;DHT22;50101;49.438;11.098;2023-05-07T07:12:25;20.20;58.10
38237;DHT22;50101;49.438;11.098;2023-05-07T07:14:52;20.20;58.10
38237;DHT22;50101;49.438;11.098;2023-05-07T07:17:20;20.30;58.10
38237;DHT22;50101;49.438;11.098;2023-05-07T07:19:47;20.30;58.10
38237;DHT22;50101;49.438;11.098;2023-05-07T07:22:14;20.30;58.10
38237;DHT22;50101;49.438;11.098;2023-05-07T07:24:40;20.30;58.10
38237;DHT22;50101;49.438;11.098;2023-05-07T07:27:07;20.30;58.00
38237;DHT22;50101;49.438;11.098;2023-05-07T07:29:34;20.30;58.00
38237;DHT22;50101;49.438;11.098;2023-05-07T07:32:01;20.30;58.70
38237;DHT22;50101;49.438;11.098;2023-05-07T07:34:27;20.30;58.00
38237;DHT22;50101;49.438;11.098;2023-05-07T07:36:54;20.30;58.00
38237;DHT22;50101;49.438;11.098;2023-05-07T07:39:21;20.30;58.20
38237;DHT22;50101;49.438;11.098;2023-05-07T07:41:48;20.40;58.20
38237;DHT22;50101;49.438;11.098;2023-05-07T07:44:14;20.30;58.20
38237;DHT22;50101;49.438;11.098;2023-05-07T07:46:42;20.20;59.10
38237;DHT22;50101;49.438;11.098;2023-05-07T07:49:09;20.10;59.70
38237;DHT22;50101;49.438;11.098;2023-05-07T07:51:36;20.00;60.20
38237;DHT22;50101;49.438;11.098;2023-05-07T07:54:03;20.00;60.30
38237;DHT22;50101;49.438;11.098;2023-05-07T07:56:32;19.90;60.50
38237;DHT22;50101;49.438;11.098;2023-05-07T07:59:00;19.90;61.30
38237;DHT22;50101;49.438;11.098;2023-05-07T08:01:27;19.90;60.90
38237;DHT22;50101;49.438;11.098;2023-05-07T08:03:54;20.00;60.90
38237;DHT22;50101;49.438;11.098;2023-05-07T08:06:21;20.00;61.10
38237;DHT22;50101;49.438;11.098;2023-05-07T08:08:47;19.90;61.20
38237;DHT22;50101;49.438;11.098;2023-05-07T08:11:14;19.90;61.20
38237;DHT22;50101;49.438;11.098;2023-05-07T08:13:41;19.90;61.20
38237;DHT22;50101;49.438;11.098;2023-05-07T08:16:07;20.00;61.30
38237;DHT22;50101;49.438;11.098;2023-05-07T08:18:34;20.00;61.00
38237;DHT22;50101;49.438;11.098;2023-05-07T08:21:01;20.00;62.60
38237;DHT22;50101;49.438;11.098;2023-05-07T08:23:30;20.00;61.50
38237;DHT22;50101;49.438;11.098;2023-05-07T08:25:57;20.00;60.90
38237;DHT22;50101;49.438;11.098;2023-05-07T08:28:24;20.20;60.60
38237;DHT22;50101;49.438;11.098;2023-05-07T08:30:51;20.30;60.50
38237;DHT22;50101;49.438;11.098;2023-05-07T08:33:18;20.40;60.10
38237;DHT22;50101;49.438;11.098;2023-05-07T08:35:45;20.40;59.30
38237;DHT22;50101;49.438;11.098;2023-05-07T08:38:11;20.30;59.20
38237;DHT22;50101;49.438;11.098;2023-05-07T08:40:39;20.30;59.20
38237;DHT22;50101;49.438;11.098;2023-05-07T08:43:07;20.30;59.20
38237;DHT22;50101;49.438;11.098;2023-05-07T08:45:34;20.40;59.30
38237;DHT22;50101;49.438;11.098;2023-05-07T08:48:03;20.30;59.20
38237;DHT22;50101;49.438;11.098;2023-05-07T08:50:32;20.40;58.80
38237;DHT22;50101;49.438;11.098;2023-05-07T08:53:03;20.40;59.30
38237;DHT22;50101;49.438;11.098;2023-05-07T08:55:30;20.40;59.60
38237;DHT22;50101;49.438;11.098;2023-05-07T08:57:57;20.40;59.30
38237;DHT22;50101;49.438;11.098;2023-05-07T09:00:23;20.40;59.80
38237;DHT22;50101;49.438;11.098;2023-05-07T09:02:51;20.40;59.80
38237;DHT22;50101;49.438;11.098;2023-05-07T09:05:18;20.40;59.30
38237;DHT22;50101;49.438;11.098;2023-05-07T09:07:45;20.40;59.10
38237;DHT22;50101;49.438;11.098;2023-05-07T09:10:13;20.40;59.10
38237;DHT22;50101;49.438;11.098;2023-05-07T09:12:40;20.40;59.00
38237;DHT22;50101;49.438;11.098;2023-05-07T09:15:07;20.40;59.10
38237;DHT22;50101;49.438;11.098;2023-05-07T09:17:34;20.50;59.40
38237;DHT22;50101;49.438;11.098;2023-05-07T09:20:05;20.50;59.40
38237;DHT22;50101;49.438;11.098;2023-05-07T09:22:37;20.50;59.40
38237;DHT22;50101;49.438;11.098;2023-05-07T09:25:07;20.50;59.40
38237;DHT22;50101;49.438;11.098;2023-05-07T09:27:36;20.50;59.10
38237;DHT22;50101;49.438;11.098;2023-05-07T09:30:06;20.50;59.40
38237;DHT22;50101;49.438;11.098;2023-05-07T09:32:37;20.50;59.40
38237;DHT22;50101;49.438;11.098;2023-05-07T09:35:15;20.60;59.50
38237;DHT22;50101;49.438;11.098;2023-05-07T09:37:42;20.50;59.40
38237;DHT22;50101;49.438;11.098;2023-05-07T09:40:24;20.60;59.50
38237;DHT22;50101;49.438;11.098;2023-05-07T09:42:51;20.60;59.50
38237;DHT22;50101;49.438;11.098;2023-05-07T09:45:27;20.60;59.50
38237;DHT22;50101;49.438;11.098;2023-05-07T09:47:57;20.60;60.30
38237;DHT22;50101;49.438;11.098;2023-05-07T09:50:29;20.60;60.90
38237;DHT22;50101;49.438;11.098;2023-05-07T09:52:56;20.60;60.10
38237;DHT22;50101;49.438;11.098;2023-05-07T09:55:23;20.60;60.10
38237;DHT22;50101;49.438;11.098;2023-05-07T09:57:51;20.60;61.00
38237;DHT22;50101;49.438;11.098;2023-05-07T10:00:19;20.50;61.40
38237;DHT22;50101;49.438;11.098;2023-05-07T10:02:52;20.50;61.00
38237;DHT22;50101;49.438;11.098;2023-05-07T10:05:19;20.60;60.70
38237;DHT22;50101;49.438;11.098;2023-05-07T10:07:46;20.70;60.90
38237;DHT22;50101;49.438;11.098;2023-05-07T10:10:14;20.60;60.40
38237;DHT22;50101;49.438;11.098;2023-05-07T10:12:42;20.60;60.90
38237;DHT22;50101;49.438;11.098;2023-05-07T10:15:10;20.70;60.70
38237;DHT22;50101;49.438;11.098;2023-05-07T10:17:39;20.70;60.40
38237;DHT22;50101;49.438;11.098;2023-05-07T10:20:07;20.80;60.40
38237;DHT22;50101;49.438;11.098;2023-05-07T10:22:43;20.90;59.70
38237;DHT22;50101;49.438;11.098;2023-05-07T10:25:17;20.90;59.70
38237;DHT22;50101;49.438;11.098;2023-05-07T10:27:46;20.80;59.60
38237;DHT22;50101;49.438;11.098;2023-05-07T10:32:59;20.70;60.50
38237;DHT22;50101;49.438;11.098;2023-05-07T10:35:39;20.70;60.10
38237;DHT22;50101;49.438;11.098;2023-05-07T10:38:07;20.70;60.20
38237;DHT22;50101;49.438;11.098;2023-05-07T10:40:34;20.70;60.30
38237;DHT22;50101;49.438;11.098;2023-05-07T10:43:03;20.70;60.10
38237;DHT22;50101;49.438;11.098;2023-05-07T10:45:35;20.70;60.10
38237;DHT22;50101;49.438;11.098;2023-05-07T10:48:09;20.70;60.80
38237;DHT22;50101;49.438;11.098;2023-05-07T10:51:21;20.70;60.20
38237;DHT22;50101;49.438;11.098;2023-05-07T10:53:48;20.70;60.00
38237;DHT22;50101;49.438;11.098;2023-05-07T10:58:45;20.70;60.00
38237;DHT22;50101;49.438;11.098;2023-05-07T11:01:11;20.70;60.00
38237;DHT22;50101;49.438;11.098;2023-05-07T11:04:12;20.70;59.70
38237;DHT22;50101;49.438;11.098;2023-05-07T11:06:39;20.70;59.60
38237;DHT22;50101;49.438;11.098;2023-05-07T11:09:06;20.70;59.70
38237;DHT22;50101;49.438;11.098;2023-05-07T11:11:46;20.70;59.60
38237;DHT22;50101;49.438;11.098;2023-05-07T11:17:09;20.70;59.80
38237;DHT22;50101;49.438;11.098;2023-05-07T11:19:50;20.70;59.70
38237;DHT22;50101;49.438;11.098;2023-05-07T11:25:00;20.70;60.10
38237;DHT22;50101;49.438;11.098;2023-05-07T11:27:27;20.70;60.40
38237;DHT22;50101;49.438;11.098;2023-05-07T11:29:54;20.70;60.20
38237;DHT22;50101;49.438;11.098;2023-05-07T11:34:55;20.70;60.40
38237;DHT22;50101;49.438;11.098;2023-05-07T11:37:23;20.70;61.10
38237;DHT22;50101;49.438;11.098;2023-05-07T11:39:50;20.80;61.20
38237;DHT22;50101;49.438;11.098;2023-05-07T11:42:31;20.80;61.30
38237;DHT22;50101;49.438;11.098;2023-05-07T11:44:59;20.80;61.20
38237;DHT22;50101;49.438;11.098;2023-05-07T11:47:26;20.80;61.20
38237;DHT22;50101;49.438;11.098;2023-05-07T11:49:53;20.80;61.40
38237;DHT22;50101;49.438;11.098;2023-05-07T11:52:23;20.90;61.30
38237;DHT22;50101;49.438;11.098;2023-05-07T11:54:51;20.80;61.30
38237;DHT22;50101;49.438;11.098;2023-05-07T11:57:19;20.80;61.20
38237;DHT22;50101;49.438;11.098;2023-05-07T11:59:46;20.80;61.30
38237;DHT22;50101;49.438;11.098;2023-05-07T12:02:15;20.90;61.30
38237;DHT22;50101;49.438;11.098;2023-05-07T12:04:42;20.90;61.30
38237;DHT22;50101;49.438;11.098;2023-05-07T12:07:15;20.80;61.10
38237;DHT22;50101;49.438;11.098;2023-05-07T12:09:42;20.80;61.10
38237;DHT22;50101;49.438;11.098;2023-05-07T12:12:09;20.80;61.00
38237;DHT22;50101;49.438;11.098;2023-05-07T12:14:40;20.90;61.10
38237;DHT22;50101;49.438;11.098;2023-05-07T12:17:08;20.90;61.00
38237;DHT22;50101;49.438;11.098;2023-05-07T12:19:36;20.90;60.80
38237;DHT22;50101;49.438;11.098;2023-05-07T12:22:04;20.90;60.80
38237;DHT22;50101;49.438;11.098;2023-05-07T12:24:47;20.90;60.70
38237;DHT22;50101;49.438;11.098;2023-05-07T12:27:15;20.90;60.70
38237;DHT22;50101;49.438;11.098;2023-05-07T12:29:47;20.90;60.60
38237;DHT22;50101;49.438;11.098;2023-05-07T12:32:16;20.90;60.60
38237;DHT22;50101;49.438;11.098;2023-05-07T12:34:44;20.90;60.60
38237;DHT22;50101;49.438;11.098;2023-05-07T12:37:12;20.90;60.50
38237;DHT22;50101;49.438;11.098;2023-05-07T12:39:49;20.90;60.40
38237;DHT22;50101;49.438;11.098;2023-05-07T12:42:18;20.90;60.30
38237;DHT22;50101;49.438;11.098;2023-05-07T12:44:46;20.90;60.20
38237;DHT22;50101;49.438;11.098;2023-05-07T12:47:14;20.90;59.90
38237;DHT22;50101;49.438;11.098;2023-05-07T12:49:43;21.00;59.90
38237;DHT22;50101;49.438;11.098;2023-05-07T12:52:11;20.90;59.80
38237;DHT22;50101;49.438;11.098;2023-05-07T12:54:39;21.00;59.80
38237;DHT22;50101;49.438;11.098;2023-05-07T12:57:08;20.90;59.70
38237;DHT22;50101;49.438;11.098;2023-05-07T12:59:41;21.00;59.80
38237;DHT22;50101;49.438;11.098;2023-05-07T13:02:08;21.00;59.80
38237;DHT22;50101;49.438;11.098;2023-05-07T13:04:36;21.00;59.80
38237;DHT22;50101;49.438;11.098;2023-05-07T13:07:02;21.00;59.80
38237;DHT22;50101;49.438;11.098;2023-05-07T13:09:30;21.00;59.80
38237;DHT22;50101;49.438;11.098;2023-05-07T13:11:58;21.00;59.80
38237;DHT22;50101;49.438;11.098;2023-05-07T13:14:27;21.10;59.90
38237;DHT22;50101;49.438;11.098;2023-05-07T13:16:54;21.10;59.90
38237;DHT22;50101;49.438;11.098;2023-05-07T13:19:21;21.10;59.90
38237;DHT22;50101;49.438;11.098;2023-05-07T13:21:47;21.10;59.90
38237;DHT22;50101;49.438;11.098;2023-05-07T13:24:16;21.10;59.90
38237;DHT22;50101;49.438;11.098;2023-05-07T13:26:42;21.20;59.70
38237;DHT22;50101;49.438;11.098;2023-05-07T13:29:11;21.20;59.90
38237;DHT22;50101;49.438;11.098;2023-05-07T13:31:38;21.30;60.00
38237;DHT22;50101;49.438;11.098;2023-05-07T13:34:09;21.20;59.80
38237;DHT22;50101;49.438;11.098;2023-05-07T13:36:36;21.20;59.80
38237;DHT22;50101;49.438;11.098;2023-05-07T13:39:05;21.20;60.00
38237;DHT22;50101;49.438;11.098;2023-05-07T13:41:32;21.10;59.90
38237;DHT22;50101;49.438;11.098;2023-05-07T13:43:59;21.10;59.90
38237;DHT22;50101;49.438;11.098;2023-05-07T13:46:26;21.10;59.90
38237;DHT22;50101;49.438;11.098;2023-05-07T13:48:53;21.10;59.90
38237;DHT22;50101;49.438;11.098;2023-05-07T13:51:19;21.10;59.90
38237;DHT22;50101;49.438;11.098;2023-05-07T13:53:47;21.10;59.90
38237;DHT22;50101;49.438;11.098;2023-05-07T13:56:14;21.10;59.90
38237;DHT22;50101;49.438;11.098;2023-05-07T13:58:41;21.10;59.90
38237;DHT22;50101;49.438;11.098;2023-05-07T14:01:24;21.10;59.90
38237;DHT22;50101;49.438;11.098;2023-05-07T14:03:51;21.10;59.90
38237;DHT22;50101;49.438;11.098;2023-05-07T14:06:18;21.10;59.90
38237;DHT22;50101;49.438;11.098;2023-05-07T14:08:44;21.10;59.90
38237;DHT22;50101;49.438;11.098;2023-05-07T14:11:11;21.10;60.00
38237;DHT22;50101;49.438;11.098;2023-05-07T14:13:38;21.20;59.50
38237;DHT22;50101;49.438;11.098;2023-05-07T14:16:05;21.20;60.00
38237;DHT22;50101;49.438;11.098;2023-05-07T14:18:31;21.20;60.00
38237;DHT22;50101;49.438;11.098;2023-05-07T14:21:00;21.30;60.10
38237;DHT22;50101;49.438;11.098;2023-05-07T14:23:26;21.30;60.10
38237;DHT22;50101;49.438;11.098;2023-05-07T14:25:54;21.30;60.10
38237;DHT22;50101;49.438;11.098;2023-05-07T14:28:21;21.30;60.10
38237;DHT22;50101;49.438;11.098;2023-05-07T14:30:47;21.30;60.10
38237;DHT22;50101;49.438;11.098;2023-05-07T14:33:14;21.20;60.00
38237;DHT22;50101;49.438;11.098;2023-05-07T14:35:41;21.20;60.00
38237;DHT22;50101;49.438;11.098;2023-05-07T14:38:07;21.20;60.00
38237;DHT22;50101;49.438;11.098;2023-05-07T14:40:34;21.30;60.10
38237;DHT22;50101;49.438;11.098;2023-05-07T14:43:01;21.30;60.10
38237;DHT22;50101;49.438;11.098;2023-05-07T14:45:27;21.30;60.10
38237;DHT22;50101;49.438;11.098;2023-05-07T14:47:54;21.40;60.20
38237;DHT22;50101;49.438;11.098;2023-05-07T14:50:21;21.30;60.50
38237;DHT22;50101;49.438;11.098;2023-05-07T14:52:48;21.30;60.10
38237;DHT22;50101;49.438;11.098;2023-05-07T14:55:15;21.30;60.90
38237;DHT22;50101;49.438;11.098;2023-05-07T14:57:42;21.30;60.40
38237;DHT22;50101;49.438;11.098;2023-05-07T15:00:09;21.30;61.50
38237;DHT22;50101;49.438;11.098;2023-05-07T15:02:36;21.30;61.10
38237;DHT22;50101;49.438;11.098;2023-05-07T15:05:03;21.30;61.10
38237;DHT22;50101;49.438;11.098;2023-05-07T15:07:30;21.30;61.10
38237;DHT22;50101;49.438;11.098;2023-05-07T15:09:58;21.30;61.10
38237;DHT22;50101;49.438;11.098;2023-05-07T15:12:25;21.20;61.00
38237;DHT22;50101;49.438;11.098;2023-05-07T15:14:52;21.20;61.00
38237;DHT22;50101;49.438;11.098;2023-05-07T15:17:19;21.20;60.90
38237;DHT22;50101;49.438;11.098;2023-05-07T15:19:45;21.20;60.50
38237;DHT22;50101;49.438;11.098;2023-05-07T15:22:12;21.10;61.00
38237;DHT22;50101;49.438;11.098;2023-05-07T15:24:40;21.20;61.10
38237;DHT22;50101;49.438;11.098;2023-05-07T15:27:07;21.20;61.50
38237;DHT22;50101;49.438;11.098;2023-05-07T15:29:34;21.20;61.40
38237;DHT22;50101;49.438;11.098;2023-05-07T15:32:00;21.20;61.60